GLRB

Roberts International Airport

Monrovia, Liberia
METAR GLRB 172000Z 00000KT 9999 BKN013 FEW024CB 26/25 Q1010 RMK CB-NE/E
Observed Flight Rules
Oct-17 @ 20:00 UTC (29 minutes ago) Marginal Visual Flight Rules
Visibility Clouds
10,000+ meters
  • Broken at 1,300' AGL
  • Few at 2,400' AGL
Temperatures Readings
Current 26°C / 79°F
Dewpoint 25°C / 77°F
Humidity 94%
Altimeter 29.82" Hg
Pressure 1010 hPa
Elevation 18
METAR GLRB 172000Z 00000KT 9999 BKN013 FEW024CB 26/25 Q1010 RMK CB-NE/E
Observed Flight Rules
Oct-17 @ 20:00 UTC
(29 minutes ago)
MVFR
Clouds
  • Broken at 1,300' AGL
  • Few at 2,400' AGL
Temperature Dewpoint
26°C / 79°F 25°C / 77°F
Humidity Altimeter Pressure
94% 29.82" Hg 1010 hPa